createdAt,value
2017-05-15T00:00:20.104Z,0
2017-05-15T00:01:20.858Z,0
2017-05-15T00:02:21.837Z,0
2017-05-15T00:03:22.567Z,0
2017-05-15T00:04:23.321Z,0
2017-05-15T00:05:24.049Z,0
2017-05-15T00:06:24.777Z,0
2017-05-15T00:07:25.751Z,0
2017-05-15T00:08:26.481Z,0
2017-05-15T00:09:27.208Z,0
2017-05-15T00:10:27.940Z,0
2017-05-15T00:11:28.667Z,0
2017-05-15T00:12:29.670Z,0
2017-05-15T00:13:30.396Z,0
2017-05-15T00:14:31.126Z,0
2017-05-15T00:15:31.856Z,0
2017-05-15T00:16:32.586Z,0
2017-05-15T00:17:33.563Z,0
2017-05-15T00:18:34.623Z,0
2017-05-15T00:19:35.279Z,0
2017-05-15T00:20:36.009Z,0
2017-05-15T00:21:36.739Z,0
2017-05-15T00:22:37.717Z,0
2017-05-15T00:23:38.445Z,0
2017-05-15T00:24:39.173Z,0
2017-05-15T00:25:39.899Z,0
2017-05-15T00:26:40.627Z,0
2017-05-15T00:27:41.605Z,0
2017-05-15T00:28:42.330Z,0
2017-05-15T00:29:43.068Z,0
2017-05-15T00:30:43.816Z,0
2017-05-15T00:31:44.542Z,0
2017-05-15T00:32:45.516Z,0
2017-05-15T00:33:46.241Z,0
2017-05-15T00:34:46.971Z,0
2017-05-15T00:35:47.697Z,0
2017-05-15T00:36:48.428Z,0
2017-05-15T00:37:49.482Z,0
2017-05-15T00:38:50.211Z,0
2017-05-15T00:39:50.941Z,0
2017-05-15T00:40:51.666Z,0
2017-05-15T00:41:52.396Z,0
2017-05-15T00:42:53.373Z,0
2017-05-15T00:43:54.102Z,0
2017-05-15T00:44:54.830Z,0
2017-05-15T00:45:55.559Z,0
2017-05-15T00:46:56.284Z,0
2017-05-15T00:47:57.260Z,0
2017-05-15T00:48:57.987Z,0
2017-05-15T00:49:58.716Z,0
2017-05-15T00:50:59.441Z,0
2017-05-15T00:58:18.342Z,0
2017-05-15T00:59:19.071Z,0
2017-05-15T01:00:19.794Z,0
2017-05-15T01:01:20.520Z,0
2017-05-15T01:02:21.249Z,0
2017-05-15T01:03:22.224Z,0
2017-05-15T01:04:22.950Z,0
2017-05-15T01:05:23.675Z,0
2017-05-15T01:06:24.403Z,0
2017-05-15T01:07:25.129Z,0
2017-05-15T01:08:26.104Z,0
2017-05-15T01:09:26.829Z,0
2017-05-15T01:10:27.559Z,0
2017-05-15T01:11:28.283Z,0
2017-05-15T01:12:29.012Z,0
2017-05-15T01:13:29.986Z,0
2017-05-15T01:14:30.715Z,0
2017-05-15T01:15:31.439Z,0
2017-05-15T01:16:32.165Z,0
2017-05-15T01:17:32.892Z,0
2017-05-15T01:18:33.869Z,0
2017-05-15T01:31:59.702Z,0
2017-05-15T01:33:00.454Z,0
2017-05-15T01:34:01.186Z,0
2017-05-15T01:38:37.996Z,0
2017-05-15T01:39:38.723Z,0
2017-05-15T01:40:39.473Z,0
2017-05-15T01:41:40.201Z,0
2017-05-15T01:46:27.936Z,0
2017-05-15T01:47:28.660Z,0
2017-05-15T01:48:29.389Z,0
2017-05-15T01:49:30.112Z,0
2017-05-15T01:50:30.837Z,0
2017-05-15T01:51:31.815Z,0
2017-05-15T01:52:32.542Z,0
2017-05-15T01:53:33.269Z,0
2017-05-15T01:54:34.247Z,0
2017-05-15T01:55:34.973Z,0
2017-05-15T01:56:35.701Z,0
2017-05-15T01:57:36.453Z,0
2017-05-15T01:58:37.177Z,0
2017-05-15T01:59:38.154Z,0
2017-05-15T02:00:38.879Z,0
2017-05-15T02:01:39.605Z,0
2017-05-15T02:02:40.331Z,0
2017-05-15T02:03:41.059Z,0
2017-05-15T02:04:42.032Z,0
2017-05-15T02:05:42.760Z,0
2017-05-15T02:06:43.486Z,0
2017-05-15T02:07:44.211Z,0
2017-05-15T02:08:44.938Z,0
2017-05-15T02:09:45.937Z,0
2017-05-15T02:10:46.663Z,0
2017-05-15T02:11:47.391Z,0
2017-05-15T02:12:48.115Z,0
2017-05-15T02:13:48.843Z,0
2017-05-15T02:14:49.821Z,0
2017-05-15T02:15:50.593Z,0
2017-05-15T02:16:51.274Z,0
2017-05-15T02:17:52.001Z,0
2017-05-15T02:18:52.749Z,0
2017-05-15T02:19:53.727Z,0
2017-05-15T02:20:54.453Z,0
2017-05-15T02:21:55.181Z,0
2017-05-15T02:22:55.900Z,0
2017-05-15T02:23:56.653Z,0
2017-05-15T02:24:57.629Z,0
2017-05-15T02:25:58.355Z,0
2017-05-15T02:26:59.079Z,0
2017-05-15T02:27:59.804Z,0
2017-05-15T02:29:00.538Z,0
2017-05-15T02:30:01.515Z,0
2017-05-15T02:31:02.239Z,0
2017-05-15T02:32:02.966Z,0
2017-05-15T02:33:03.692Z,0
2017-05-15T02:34:04.429Z,0
2017-05-15T02:35:05.395Z,0
2017-05-15T02:36:06.120Z,0
2017-05-15T02:37:06.847Z,0
2017-05-15T02:38:07.573Z,0
2017-05-15T02:39:08.301Z,0
2017-05-15T02:40:09.279Z,0
2017-05-15T02:41:10.027Z,0
2017-05-15T02:42:10.754Z,0
2017-05-15T02:43:11.482Z,0
2017-05-15T02:44:12.208Z,0
2017-05-15T02:45:13.188Z,0
2017-05-15T02:46:13.915Z,0
2017-05-15T02:47:14.641Z,0
2017-05-15T02:48:15.373Z,0
2017-05-15T02:49:16.097Z,0
2017-05-15T02:50:17.074Z,0
2017-05-15T02:51:17.800Z,0
2017-05-15T02:52:18.529Z,0
2017-05-15T02:53:19.254Z,0
2017-05-15T02:54:19.979Z,0
2017-05-15T02:55:20.959Z,0
2017-05-15T02:56:21.676Z,0
2017-05-15T02:57:22.402Z,0
2017-05-15T02:58:23.127Z,0
2017-05-15T02:59:23.855Z,0
2017-05-15T03:00:24.827Z,0
2017-05-15T03:01:25.550Z,0
2017-05-15T03:02:26.276Z,0
2017-05-15T03:03:27.028Z,0
2017-05-15T03:04:27.755Z,0
2017-05-15T03:05:28.732Z,0
2017-05-15T03:06:29.457Z,0
2017-05-15T03:07:30.187Z,0
2017-05-15T03:08:30.911Z,0
2017-05-15T03:09:31.637Z,0
2017-05-15T03:10:32.615Z,0
2017-05-15T03:11:33.341Z,0
2017-05-15T03:12:34.067Z,0
2017-05-15T03:13:34.796Z,0
2017-05-15T03:14:35.523Z,0
2017-05-15T03:15:36.501Z,0
2017-05-15T03:16:37.230Z,0
2017-05-15T03:17:37.958Z,0
2017-05-15T03:18:38.680Z,0
2017-05-15T03:19:39.405Z,0
2017-05-15T03:20:40.385Z,0
2017-05-15T03:21:41.114Z,0
2017-05-15T03:22:41.840Z,0
2017-05-15T03:23:42.572Z,0
2017-05-15T03:24:43.321Z,0
2017-05-15T03:25:44.297Z,0
2017-05-15T03:26:45.025Z,0
2017-05-15T03:27:45.753Z,0
2017-05-15T03:28:46.479Z,0
2017-05-15T03:29:47.208Z,0
2017-05-15T03:30:48.209Z,0
2017-05-15T03:31:48.939Z,5
2017-05-15T03:32:49.665Z,5
2017-05-15T03:33:50.396Z,5
2017-05-15T03:34:51.126Z,5
2017-05-15T03:35:52.105Z,5
2017-05-15T03:36:52.834Z,5
2017-05-15T03:37:53.564Z,5
2017-05-15T03:38:54.294Z,5
2017-05-15T03:39:55.022Z,5
2017-05-15T03:40:56.003Z,10
2017-05-15T03:41:56.731Z,10
2017-05-15T03:42:57.463Z,10
2017-05-15T03:43:58.190Z,10
2017-05-15T03:44:58.923Z,10
2017-05-15T03:45:59.902Z,10
2017-05-15T03:47:00.630Z,10
2017-05-15T03:48:01.365Z,15
2017-05-15T03:49:02.094Z,15
2017-05-15T03:50:02.825Z,15
2017-05-15T03:51:03.803Z,15
2017-05-15T03:52:04.532Z,15
2017-05-15T03:53:05.262Z,20
2017-05-15T03:54:05.994Z,20
2017-05-15T03:55:06.748Z,20
2017-05-15T03:56:07.729Z,20
2017-05-15T03:57:08.457Z,25
2017-05-15T03:58:09.191Z,25
2017-05-15T03:59:09.919Z,25
2017-05-15T04:00:10.647Z,25
2017-05-15T04:01:11.627Z,30
2017-05-15T04:02:12.354Z,30
2017-05-15T04:03:13.083Z,30
2017-05-15T04:04:13.816Z,30
2017-05-15T04:05:14.546Z,35
2017-05-15T04:06:15.524Z,35
2017-05-15T04:07:16.257Z,35
2017-05-15T04:08:16.988Z,35
2017-05-15T04:09:17.718Z,35
2017-05-15T04:10:18.446Z,40
2017-05-15T04:11:19.429Z,40
2017-05-15T04:12:20.158Z,40
2017-05-15T04:13:20.916Z,40
2017-05-15T04:14:21.643Z,45
2017-05-15T04:15:22.373Z,45
2017-05-15T04:16:23.355Z,45
2017-05-15T04:17:24.085Z,45
2017-05-15T04:18:24.818Z,50
2017-05-15T04:19:25.545Z,50
2017-05-15T04:20:26.278Z,50
2017-05-15T04:21:27.258Z,50
2017-05-15T04:22:27.987Z,55
2017-05-15T04:23:28.721Z,55
2017-05-15T04:24:29.447Z,55
2017-05-15T04:25:30.180Z,55
2017-05-15T04:26:31.163Z,55
2017-05-15T04:27:31.891Z,60
2017-05-15T04:28:32.624Z,60
2017-05-15T04:29:33.352Z,60
2017-05-15T04:30:34.078Z,60
2017-05-15T04:31:35.059Z,60
2017-05-15T04:32:35.789Z,60
2017-05-15T04:33:36.519Z,60
2017-05-15T04:34:37.247Z,60
2017-05-15T04:35:37.980Z,65
2017-05-15T04:36:38.972Z,65
2017-05-15T04:37:39.693Z,65
2017-05-15T04:38:40.423Z,65
2017-05-15T04:39:41.155Z,70
2017-05-15T04:40:41.878Z,70
2017-05-15T04:41:42.861Z,70
2017-05-15T04:42:43.590Z,75
2017-05-15T04:43:44.321Z,75
2017-05-15T04:44:45.053Z,75
2017-05-15T04:45:45.786Z,75
2017-05-15T04:46:46.768Z,80
2017-05-15T04:47:47.524Z,80
2017-05-15T04:48:48.286Z,80
2017-05-15T04:49:49.015Z,80
2017-05-15T04:50:49.744Z,85
2017-05-15T04:51:50.726Z,85
2017-05-15T04:52:51.481Z,85
2017-05-15T04:53:52.215Z,90
2017-05-15T04:54:52.947Z,90
2017-05-15T04:55:53.704Z,90
2017-05-15T04:56:54.943Z,90
2017-05-15T04:57:55.701Z,90
2017-05-15T04:58:56.435Z,90
2017-05-15T04:59:57.165Z,95
2017-05-15T05:00:57.896Z,90
2017-05-15T05:01:58.877Z,90
2017-05-15T05:02:59.609Z,90
2017-05-15T05:04:00.345Z,90
2017-05-15T05:05:01.074Z,90
2017-05-15T05:06:01.830Z,95
2017-05-15T05:07:02.810Z,95
2017-05-15T05:08:03.543Z,95
2017-05-15T05:09:04.275Z,95
2017-05-15T05:10:05.007Z,95
2017-05-15T05:11:05.734Z,95
2017-05-15T05:12:06.742Z,95
2017-05-15T05:13:07.473Z,95
2017-05-15T05:14:08.208Z,100
2017-05-15T05:15:08.942Z,100
2017-05-15T05:16:09.675Z,100
2017-05-15T05:17:10.656Z,100
2017-05-15T05:18:11.391Z,100
2017-05-15T05:19:12.123Z,100
2017-05-15T05:20:12.884Z,100
2017-05-15T05:21:13.616Z,105
2017-05-15T05:22:14.603Z,105
2017-05-15T05:23:15.334Z,105
2017-05-15T05:24:16.066Z,105
2017-05-15T05:25:16.801Z,105
2017-05-15T05:26:17.533Z,105
2017-05-15T05:27:18.540Z,105
2017-05-15T05:28:19.273Z,105
2017-05-15T05:29:20.005Z,105
2017-05-15T05:30:20.739Z,105
2017-05-15T05:31:21.472Z,110
2017-05-15T05:32:22.452Z,110
2017-05-15T05:33:23.187Z,110
2017-05-15T05:34:23.941Z,110
2017-05-15T05:35:24.673Z,110
2017-05-15T05:36:25.405Z,110
2017-05-15T05:37:26.388Z,110
2017-05-15T05:38:27.121Z,110
2017-05-15T05:39:27.878Z,115
2017-05-15T05:40:28.612Z,115
2017-05-15T05:41:29.343Z,115
2017-05-15T05:42:30.325Z,110
2017-05-15T05:43:31.068Z,110
2017-05-15T05:44:31.789Z,115
2017-05-15T05:45:32.547Z,115
2017-05-15T05:46:33.280Z,115
2017-05-15T05:47:34.263Z,115
2017-05-15T05:48:34.998Z,120
2017-05-15T05:49:35.729Z,115
2017-05-15T05:50:36.463Z,120
2017-05-15T05:51:37.197Z,120
2017-05-15T05:52:38.182Z,120
2017-05-15T05:53:38.914Z,120
2017-05-15T05:54:39.649Z,125
2017-05-15T05:55:40.382Z,125
2017-05-15T05:56:41.116Z,125
2017-05-15T05:57:42.098Z,125
2017-05-15T05:58:42.828Z,125
2017-05-15T05:59:43.563Z,125
2017-05-15T06:00:44.296Z,125
2017-05-15T06:01:45.028Z,125
2017-05-15T06:02:46.011Z,130
2017-05-15T06:03:46.744Z,130
2017-05-15T06:04:47.503Z,130
2017-05-15T06:05:48.237Z,130
2017-05-15T06:06:48.966Z,130
2017-05-15T06:07:49.948Z,130
2017-05-15T06:08:50.675Z,130
2017-05-15T06:09:51.408Z,130
2017-05-15T06:10:52.139Z,130
2017-05-15T06:11:52.874Z,130
2017-05-15T06:12:53.857Z,130
2017-05-15T06:13:54.588Z,130
2017-05-15T06:14:55.397Z,130
2017-05-15T06:15:56.077Z,130
2017-05-15T06:16:56.812Z,130
2017-05-15T06:17:57.793Z,130
2017-05-15T06:18:58.527Z,135
2017-05-15T06:19:59.261Z,135
2017-05-15T06:20:59.993Z,135
2017-05-15T06:22:00.725Z,135
2017-05-15T06:23:01.710Z,135
2017-05-15T06:24:02.469Z,135
2017-05-15T06:25:03.199Z,135
2017-05-15T06:26:03.931Z,140
2017-05-15T06:27:04.663Z,140
2017-05-15T06:28:05.646Z,140
2017-05-15T06:29:06.379Z,140
2017-05-15T06:30:07.113Z,140
2017-05-15T06:31:07.846Z,140
2017-05-15T06:32:08.578Z,145
2017-05-15T06:33:09.563Z,145
2017-05-15T06:34:10.298Z,145
2017-05-15T06:35:11.034Z,145
2017-05-15T06:36:11.764Z,145
2017-05-15T06:37:12.498Z,145
2017-05-15T06:38:13.483Z,145
2017-05-15T06:39:14.213Z,145
2017-05-15T06:40:14.948Z,150
2017-05-15T06:41:15.680Z,150
2017-05-15T06:42:16.417Z,150
2017-05-15T06:43:17.399Z,150
2017-05-15T06:44:18.131Z,150
2017-05-15T06:45:18.867Z,155
2017-05-15T06:46:19.604Z,150
2017-05-15T06:47:20.337Z,150
2017-05-15T06:48:21.321Z,150
2017-05-15T06:49:22.053Z,150
2017-05-15T06:50:22.810Z,150
2017-05-15T06:51:23.541Z,155
2017-05-15T06:52:24.300Z,155
2017-05-15T06:53:25.309Z,155
2017-05-15T06:54:26.040Z,155
2017-05-15T06:55:27.037Z,155
2017-05-15T06:56:27.770Z,160
2017-05-15T06:57:28.506Z,160
2017-05-15T06:58:29.487Z,160
2017-05-15T06:59:30.219Z,160
2017-05-15T07:00:30.982Z,165
2017-05-15T07:01:31.712Z,160
2017-05-15T07:02:32.470Z,165
2017-05-15T07:03:33.456Z,160
2017-05-15T07:04:34.215Z,160
2017-05-15T07:05:34.950Z,165
2017-05-15T07:06:35.684Z,165
2017-05-15T07:07:36.419Z,165
2017-05-15T07:08:37.402Z,170
2017-05-15T07:09:38.135Z,170
2017-05-15T07:10:38.864Z,175
2017-05-15T07:11:39.598Z,175
2017-05-15T07:12:40.332Z,215
2017-05-15T07:13:41.316Z,385
2017-05-15T07:14:42.050Z,595
2017-05-15T07:15:42.785Z,790
2017-05-15T07:16:43.520Z,850
2017-05-15T07:17:44.258Z,910
2017-05-15T07:18:45.246Z,930
2017-05-15T07:19:45.980Z,905
2017-05-15T07:20:46.715Z,875
2017-05-15T07:21:47.455Z,910
2017-05-15T07:22:48.197Z,940
2017-05-15T07:23:49.189Z,1000
2017-05-15T07:24:49.933Z,1000
2017-05-15T07:25:50.678Z,965
2017-05-15T07:26:51.447Z,945
2017-05-15T07:27:52.190Z,995
2017-05-15T07:28:53.183Z,1020
2017-05-15T07:29:53.930Z,1000
2017-05-15T07:30:54.666Z,1055
2017-05-15T07:31:55.416Z,1105
2017-05-15T07:32:56.159Z,1115
2017-05-15T07:33:57.156Z,1105
2017-05-15T07:34:57.900Z,1010
2017-05-15T07:35:58.651Z,960
2017-05-15T07:36:59.419Z,1025
2017-05-15T07:38:00.164Z,1080
2017-05-15T07:39:01.154Z,1115
2017-05-15T07:40:01.901Z,1120
2017-05-15T07:41:02.652Z,1135
2017-05-15T07:42:03.393Z,1120
2017-05-15T07:43:04.137Z,1135
2017-05-15T07:44:05.135Z,1210
2017-05-15T07:45:05.879Z,1250
2017-05-15T07:46:06.621Z,1230
2017-05-15T07:47:07.365Z,1195
2017-05-15T07:48:08.109Z,1255
2017-05-15T07:49:09.101Z,1235
2017-05-15T07:50:09.847Z,1225
2017-05-15T07:51:10.590Z,1275
2017-05-15T07:52:11.334Z,1290
2017-05-15T07:53:12.077Z,1295
2017-05-15T07:54:13.073Z,1275
2017-05-15T07:55:13.818Z,1300
2017-05-15T07:56:14.590Z,1315
2017-05-15T07:57:15.334Z,1285
2017-05-15T07:58:16.079Z,1295
2017-05-15T07:59:17.078Z,1265
2017-05-15T08:00:17.818Z,1260
2017-05-15T08:01:18.564Z,1310
2017-05-15T08:02:19.315Z,1285
2017-05-15T08:03:20.061Z,1280
2017-05-15T08:04:21.079Z,1350
2017-05-15T08:05:21.823Z,1375
2017-05-15T08:06:22.571Z,1415
2017-05-15T08:07:23.317Z,1420
2017-05-15T08:08:24.064Z,1385
2017-05-15T08:09:25.058Z,1425
2017-05-15T08:10:25.803Z,1485
2017-05-15T08:11:26.550Z,1545
2017-05-15T08:12:27.298Z,1535
2017-05-15T08:13:28.043Z,1470
2017-05-15T08:14:29.042Z,1460
2017-05-15T08:15:29.787Z,1445
2017-05-15T08:16:30.535Z,1435
2017-05-15T08:17:31.282Z,1490
2017-05-15T08:18:32.025Z,1535
2017-05-15T08:19:33.015Z,1530
2017-05-15T08:20:33.760Z,1550
2017-05-15T08:22:47.742Z,1450
2017-05-15T08:23:48.487Z,1440
2017-05-15T08:24:49.487Z,1395
2017-05-15T08:25:50.232Z,1390
2017-05-15T08:26:50.979Z,1445
2017-05-15T08:27:51.724Z,1480
2017-05-15T08:28:52.471Z,1430
2017-05-15T08:29:53.461Z,1460
2017-05-15T08:30:54.208Z,1485
2017-05-15T08:31:54.955Z,1500
2017-05-15T08:32:55.729Z,1520
2017-05-15T08:33:56.475Z,1580
2017-05-15T08:34:57.473Z,1580
2017-05-15T08:35:58.219Z,1545
2017-05-15T08:36:58.965Z,1565
2017-05-15T08:37:59.717Z,1595
2017-05-15T08:39:00.465Z,1615
2017-05-15T08:40:01.487Z,1640
2017-05-15T08:41:02.235Z,1680
2017-05-15T08:42:02.984Z,1715
2017-05-15T08:43:03.731Z,1730
2017-05-15T08:44:04.480Z,1690
2017-05-15T08:45:05.479Z,1635
2017-05-15T08:46:06.227Z,1620
2017-05-15T08:47:06.974Z,1690
2017-05-15T08:48:07.722Z,1745
2017-05-15T08:49:08.471Z,1765
2017-05-15T08:50:09.475Z,1720
2017-05-15T08:51:10.217Z,1680
2017-05-15T08:52:10.962Z,1555
2017-05-15T08:53:11.712Z,1595
2017-05-15T08:54:12.460Z,1675
2017-05-15T08:55:13.465Z,1790
2017-05-15T08:56:14.214Z,1855
2017-05-15T08:57:14.962Z,1835
2017-05-15T08:58:15.715Z,1840
2017-05-15T08:59:16.467Z,1850
2017-05-15T09:00:17.475Z,1820
2017-05-15T09:01:18.227Z,1830
2017-05-15T09:02:18.985Z,1855
2017-05-15T09:03:19.740Z,1995
2017-05-15T09:04:20.491Z,1800
2017-05-15T09:05:21.497Z,1840
2017-05-15T09:06:22.245Z,1805
2017-05-15T09:07:23.006Z,1860
2017-05-15T09:08:23.762Z,1810
2017-05-15T09:09:24.517Z,1725
2017-05-15T09:10:25.526Z,1945
2017-05-15T09:11:26.284Z,1670
2017-05-15T09:12:27.040Z,1910
2017-05-15T09:13:27.798Z,1895
2017-05-15T09:14:28.559Z,1780
2017-05-15T09:15:29.567Z,1865
2017-05-15T09:16:30.323Z,1820
2017-05-15T09:17:31.082Z,1840
2017-05-15T09:18:31.837Z,1980
2017-05-15T09:19:32.591Z,2030
2017-05-15T09:20:33.594Z,2085
2017-05-15T09:21:34.349Z,2110
2017-05-15T09:22:35.107Z,1855
2017-05-15T09:23:35.864Z,1920
2017-05-15T09:24:36.631Z,1790
2017-05-15T09:25:37.682Z,1885
2017-05-15T09:26:38.438Z,1895
2017-05-15T09:27:39.191Z,1835
2017-05-15T09:28:39.946Z,2070
2017-05-15T09:29:40.710Z,1950
2017-05-15T09:30:41.721Z,1960
2017-05-15T09:31:42.474Z,1930
2017-05-15T09:32:43.231Z,2005
2017-05-15T09:33:43.989Z,1955
2017-05-15T09:34:44.745Z,1965
2017-05-15T09:35:45.750Z,1980
2017-05-15T09:36:46.505Z,1735
2017-05-15T09:37:47.264Z,2095
2017-05-15T09:38:48.046Z,1995
2017-05-15T09:39:48.802Z,2050
2017-05-15T09:40:49.808Z,2080
2017-05-15T09:41:50.563Z,2075
2017-05-15T09:42:51.322Z,2125
2017-05-15T09:43:52.077Z,2050
2017-05-15T09:44:52.857Z,2020
2017-05-15T09:45:53.867Z,2010
2017-05-15T09:46:54.621Z,1945
2017-05-15T09:47:55.377Z,1925
2017-05-15T09:48:56.142Z,2100
2017-05-15T09:49:56.915Z,2190
2017-05-15T09:50:57.924Z,2225
2017-05-15T09:51:58.684Z,2285
2017-05-15T09:52:59.442Z,2205
2017-05-15T09:54:00.202Z,2135
2017-05-15T09:55:00.960Z,2140
2017-05-15T09:56:01.968Z,1385
2017-05-15T09:57:02.724Z,2165
2017-05-15T09:58:03.484Z,2215
2017-05-15T09:59:04.245Z,2175
2017-05-15T10:00:05.003Z,2220
2017-05-15T10:01:06.038Z,2360
2017-05-15T10:02:06.794Z,2380
2017-05-15T10:03:07.554Z,2415
2017-05-15T10:04:08.312Z,2450
2017-05-15T10:05:09.071Z,2395
2017-05-15T10:06:10.080Z,2390
2017-05-15T10:07:10.838Z,2415
2017-05-15T10:08:11.600Z,2485
2017-05-15T10:09:12.358Z,2445
2017-05-15T10:10:13.121Z,700
2017-05-15T10:11:14.126Z,1510
2017-05-15T10:12:14.885Z,635
2017-05-15T10:13:15.644Z,1420
2017-05-15T10:14:16.402Z,1330
2017-05-15T10:15:17.152Z,810
2017-05-15T10:16:18.156Z,465
2017-05-15T10:17:18.909Z,495
2017-05-15T10:18:19.665Z,690
2017-05-15T10:19:20.419Z,685
2017-05-15T10:20:21.503Z,470
2017-05-15T10:21:22.439Z,450
2017-05-15T10:22:23.197Z,470
2017-05-15T10:23:23.948Z,2545
2017-05-15T10:24:24.706Z,2520
2017-05-15T10:25:25.459Z,1840
2017-05-15T10:26:26.472Z,2535
2017-05-15T10:27:27.231Z,2390
2017-05-15T10:28:27.988Z,2335
2017-05-15T10:29:28.744Z,2470
2017-05-15T10:30:29.502Z,2570
2017-05-15T10:31:30.510Z,2570
2017-05-15T10:32:31.264Z,2710
2017-05-15T10:33:32.022Z,2755
2017-05-15T10:34:32.778Z,2640
2017-05-15T10:35:33.536Z,2665
2017-05-15T10:36:34.543Z,2570
2017-05-15T10:37:35.301Z,655
2017-05-15T10:38:36.055Z,465
2017-05-15T10:39:36.811Z,435
2017-05-15T10:40:37.564Z,2465
2017-05-15T10:41:38.568Z,2075
2017-05-15T10:42:39.321Z,2520
2017-05-15T10:43:40.075Z,2520
2017-05-15T10:44:40.829Z,2315
2017-05-15T10:45:41.586Z,2290
2017-05-15T10:46:42.592Z,2445
2017-05-15T10:47:43.352Z,2535
2017-05-15T10:48:44.107Z,2665
2017-05-15T10:49:44.865Z,2680
2017-05-15T10:50:45.624Z,2690
2017-05-15T10:51:46.680Z,2650
2017-05-15T10:52:47.383Z,2565
2017-05-15T10:53:48.137Z,2490
2017-05-15T10:54:48.892Z,2490
2017-05-15T10:55:49.651Z,2480
2017-05-15T10:56:50.656Z,2545
2017-05-15T10:57:51.432Z,2670
2017-05-15T10:58:52.190Z,2685
2017-05-15T10:59:52.947Z,2720
2017-05-15T11:00:53.705Z,2670
2017-05-15T11:01:54.710Z,2530
2017-05-15T11:02:55.464Z,2340
2017-05-15T11:03:56.217Z,2340
2017-05-15T11:04:56.978Z,2520
2017-05-15T11:05:57.765Z,2690
2017-05-15T11:06:58.768Z,2850
2017-05-15T11:07:59.524Z,2850
2017-05-15T11:09:00.281Z,2870
2017-05-15T11:10:01.064Z,2890
2017-05-15T11:11:01.821Z,2850
2017-05-15T11:12:02.829Z,2735
2017-05-15T11:13:03.584Z,2670
2017-05-15T11:14:04.340Z,2610
2017-05-15T11:15:05.095Z,2595
2017-05-15T11:16:05.855Z,2690
2017-05-15T11:17:06.882Z,2730
2017-05-15T11:18:07.662Z,2730
2017-05-15T11:19:08.419Z,2770
2017-05-15T11:20:09.177Z,2585
2017-05-15T11:21:09.935Z,2585
2017-05-15T11:22:10.937Z,2775
2017-05-15T11:23:11.694Z,2795
2017-05-15T11:24:12.475Z,2690
2017-05-15T11:25:13.235Z,2620
2017-05-15T11:26:13.993Z,2560
2017-05-15T11:39:51.201Z,2875
2017-05-15T11:40:51.959Z,3035
2017-05-15T11:41:52.740Z,3270
2017-05-15T11:42:53.497Z,3235
2017-05-15T11:43:54.252Z,2990
2017-05-15T11:48:31.166Z,2885
2017-05-15T11:49:32.121Z,2730
2017-05-15T11:50:32.878Z,2535
2017-05-15T11:51:33.640Z,2575
2017-05-15T11:52:34.393Z,2795
2017-05-15T11:53:35.424Z,2875
2017-05-15T11:54:36.181Z,2855
2017-05-15T11:55:36.936Z,2835
2017-05-15T11:56:37.692Z,2840
2017-05-15T12:00:09.941Z,2845
2017-05-15T12:01:10.700Z,2915
2017-05-15T12:07:14.193Z,2640
2017-05-15T12:08:14.975Z,2675
2017-05-15T12:09:15.732Z,2675
2017-05-15T12:10:16.487Z,2665
2017-05-15T12:11:17.440Z,2705
2017-05-15T12:12:18.447Z,2715
2017-05-15T12:13:19.228Z,2740
2017-05-15T12:14:19.982Z,1360
2017-05-15T12:15:20.739Z,2310
2017-05-15T12:23:44.953Z,2850
2017-05-15T12:28:21.857Z,2500
2017-05-15T12:29:22.611Z,2440
2017-05-15T12:30:23.366Z,2575
2017-05-15T12:31:24.147Z,2700
2017-05-15T12:32:24.909Z,2710
2017-05-15T12:33:25.912Z,2750
2017-05-15T12:34:26.693Z,2715
2017-05-15T12:35:27.479Z,2665
2017-05-15T12:36:28.237Z,2685
2017-05-15T12:41:16.101Z,2615
2017-05-15T12:42:16.861Z,2470
2017-05-15T12:46:53.516Z,2580
2017-05-15T12:47:54.273Z,2685
2017-05-15T12:48:55.278Z,2710
2017-05-15T12:49:56.035Z,2715
2017-05-15T12:54:44.125Z,2645
2017-05-15T12:58:23.170Z,1470
2017-05-15T12:59:23.925Z,1805
2017-05-15T13:00:24.680Z,2180
2017-05-15T13:01:25.432Z,2310
2017-05-15T13:02:26.188Z,2170
2017-05-15T13:03:27.198Z,2420
2017-05-15T13:04:27.955Z,2485
2017-05-15T13:05:28.731Z,2295
2017-05-15T13:06:29.494Z,1770
2017-05-15T13:07:30.256Z,2785
2017-05-15T13:08:31.334Z,650
2017-05-15T13:09:32.090Z,2680
2017-05-15T13:10:32.843Z,2510
2017-05-15T13:11:33.598Z,2635
2017-05-15T13:12:34.355Z,2725
2017-05-15T13:13:35.365Z,2700
2017-05-15T13:14:36.124Z,2685
2017-05-15T13:15:36.882Z,2645
2017-05-15T13:16:37.642Z,2150
2017-05-15T13:17:38.404Z,2380
2017-05-15T13:18:39.412Z,2390
2017-05-15T13:19:40.175Z,2475
2017-05-15T13:20:40.927Z,2540
2017-05-15T13:21:41.709Z,2530
2017-05-15T13:22:42.466Z,2260
2017-05-15T13:23:43.502Z,625
2017-05-15T13:24:44.262Z,1095
2017-05-15T13:25:45.019Z,1720
2017-05-15T13:26:45.774Z,1530
2017-05-15T13:27:46.533Z,1945
2017-05-15T13:28:47.540Z,2175
2017-05-15T13:29:48.297Z,2245
2017-05-15T13:30:49.054Z,1795
2017-05-15T13:31:49.804Z,1940
2017-05-15T13:32:50.560Z,2090
2017-05-15T13:33:51.618Z,2440
2017-05-15T13:34:52.377Z,2370
2017-05-15T13:35:53.133Z,2460
2017-05-15T13:36:53.894Z,2445
2017-05-15T13:37:54.651Z,2295
2017-05-15T13:38:55.658Z,2170
2017-05-15T13:39:56.408Z,2245
2017-05-15T13:40:57.164Z,2260
2017-05-15T13:41:57.921Z,2135
2017-05-15T13:42:58.680Z,2030
2017-05-15T13:43:59.689Z,1915
2017-05-15T13:45:00.440Z,2080
2017-05-15T13:46:01.223Z,2255
2017-05-15T13:47:02.241Z,2320
2017-05-15T13:48:03.000Z,2275
2017-05-15T13:49:04.008Z,2185
2017-05-15T13:50:04.765Z,2200
2017-05-15T13:51:05.521Z,2235
2017-05-15T13:52:06.278Z,1965
2017-05-15T13:53:07.036Z,435
2017-05-15T13:54:08.039Z,580
2017-05-15T13:55:08.794Z,1185
2017-05-15T13:56:09.551Z,2070
2017-05-15T13:57:10.336Z,1930
2017-05-15T13:58:11.092Z,1885
2017-05-15T13:59:12.098Z,1995
2017-05-15T14:00:12.854Z,1915
2017-05-15T14:01:13.608Z,2045
2017-05-15T14:02:14.370Z,2110
2017-05-15T14:03:15.120Z,2260
2017-05-15T14:04:16.125Z,2245
2017-05-15T14:05:16.881Z,2200
2017-05-15T14:06:17.638Z,2140
2017-05-15T14:07:18.397Z,2030
2017-05-15T14:08:19.156Z,2070
2017-05-15T14:09:20.162Z,2015
2017-05-15T14:10:20.921Z,1975
2017-05-15T14:11:21.679Z,1965
2017-05-15T14:12:22.462Z,2045
2017-05-15T14:13:23.221Z,2140
2017-05-15T14:14:24.228Z,2110
2017-05-15T14:15:25.011Z,2015
2017-05-15T14:16:25.769Z,1825
2017-05-15T14:17:26.550Z,1760
2017-05-15T14:18:27.309Z,1850
2017-05-15T14:19:28.317Z,2035
2017-05-15T14:20:29.073Z,2055
2017-05-15T14:21:29.832Z,1945
2017-05-15T14:22:30.617Z,1915
2017-05-15T14:23:31.373Z,2015
2017-05-15T14:24:32.381Z,1930
2017-05-15T14:25:33.137Z,1815
2017-05-15T14:26:33.893Z,1645
2017-05-15T14:27:34.679Z,1155
2017-05-15T14:28:35.432Z,1070
2017-05-15T14:29:36.439Z,1835
2017-05-15T14:30:37.196Z,1785
2017-05-15T14:31:37.954Z,1755
2017-05-15T14:32:38.710Z,1770
2017-05-15T14:33:39.465Z,1765
2017-05-15T14:34:40.470Z,1815
2017-05-15T14:35:41.227Z,1865
2017-05-15T14:36:41.985Z,1780
2017-05-15T14:37:42.740Z,1740
2017-05-15T14:38:43.500Z,1705
2017-05-15T14:39:44.509Z,1720
2017-05-15T14:40:45.264Z,1750
2017-05-15T14:41:46.020Z,1800
2017-05-15T14:42:46.776Z,1865
2017-05-15T14:43:47.536Z,1840
2017-05-15T14:44:48.540Z,1805
2017-05-15T14:45:49.299Z,1750
2017-05-15T14:46:50.056Z,1655
2017-05-15T14:47:50.810Z,1595
2017-05-15T14:48:51.566Z,1615
2017-05-15T14:49:52.577Z,1665
2017-05-15T14:50:53.334Z,1770
2017-05-15T14:51:54.099Z,1760
2017-05-15T14:52:54.858Z,1700
2017-05-15T15:00:13.960Z,1335
2017-05-15T15:01:14.720Z,1360
2017-05-15T15:04:53.868Z,1690
2017-05-15T15:05:54.629Z,1715
2017-05-15T17:44:48.429Z,35
2017-05-15T17:45:49.162Z,35
2017-05-15T17:46:49.902Z,35
2017-05-15T17:47:50.637Z,35
2017-05-15T17:48:51.375Z,35
2017-05-15T17:49:52.363Z,35
2017-05-15T17:50:53.101Z,35
2017-05-15T17:51:53.829Z,35
2017-05-15T17:52:54.562Z,35
2017-05-15T17:53:55.299Z,35
2017-05-15T17:54:56.283Z,35
2017-05-15T17:55:57.045Z,35
2017-05-15T17:56:57.806Z,30
2017-05-15T18:01:45.605Z,30
2017-05-15T18:02:46.340Z,30
2017-05-15T18:03:47.084Z,30
2017-05-15T18:04:47.819Z,25
2017-05-15T18:05:48.582Z,25
2017-05-15T18:06:49.619Z,25
2017-05-15T18:07:50.356Z,25